Time;durP1;ratioP1;P1;durP2;ratioP2;P2;SDS_P1;SDS_P2;PMS_P1;PMS_P2;Temp;Humidity;BMP_temperature;BMP_pressure;BME280_temperature;BME280_humidity;BME280_pressure;Samples;Min_cycle;Max_cycle;Signal;HPM_P1;HPM_P2
2022/11/04 00:00:32;;;;;;;8.43;5.50;;;;;;;;;;5051395;28;20332;-80
2022/11/04 00:02:59;;;;;;;6.27;5.27;;;;;;;;;;5050487;28;20204;-80
2022/11/04 00:05:26;;;;;;;11.23;5.80;;;;;;;;;;5050638;28;20210;-80
2022/11/04 00:13:22;;;;;;;9.30;4.77;;;;;;;;;;5050736;28;20235;-80
2022/11/04 00:18:35;;;;;;;6.67;5.10;;;;;;;;;;5050859;28;20614;-80
2022/11/04 00:29:21;;;;;;;6.43;5.20;;;;;;;;;;5050528;28;20209;-80
2022/11/04 00:34:37;;;;;;;7.03;5.30;;;;;;;;;;4993728;28;20200;-80
2022/11/04 00:37:05;;;;;;;7.40;5.23;;;;;;;;;;5051382;28;20295;-79
2022/11/04 00:39:32;;;;;;;12.17;5.80;;;;;;;;;;5050811;28;20232;-80
2022/11/04 00:42:00;;;;;;;9.53;5.97;;;;;;;;;;5050625;28;20619;-79
2022/11/04 00:44:27;;;;;;;6.17;5.57;;;;;;;;;;5050311;28;20711;-80
2022/11/04 00:46:53;;;;;;;6.73;5.60;;;;;;;;;;5050640;28;20202;-80
2022/11/04 00:49:20;;;;;;;7.30;6.33;;;;;;;;;;5050083;28;20699;-80
2022/11/04 00:51:47;;;;;;;10.37;6.37;;;;;;;;;;5050494;28;20213;-80
2022/11/04 00:54:14;;;;;;;7.50;5.73;;;;;;;;;;5050519;28;20202;-79
2022/11/04 00:56:41;;;;;;;7.60;5.73;;;;;;;;;;5050497;28;20217;-80
2022/11/04 00:59:10;;;;;;;10.87;5.73;;;;;;;;;;5052624;28;20229;-80
2022/11/04 01:01:37;;;;;;;7.43;6.27;;;;;;;;;;5054444;28;20229;-80
2022/11/04 01:04:03;;;;;;;6.67;5.27;;;;;;;;;;5054106;28;20291;-80
2022/11/04 01:06:30;;;;;;;13.27;6.97;;;;;;;;;;5054725;28;20835;-80
2022/11/04 01:08:57;;;;;;;7.73;5.97;;;;;;;;;;5054355;28;20202;-79
2022/11/04 01:11:27;;;;;;;8.03;6.30;;;;;;;;;;5054293;28;20209;-80
2022/11/04 01:13:54;;;;;;;6.43;5.83;;;;;;;;;;5054139;28;20677;-80
2022/11/04 01:16:22;;;;;;;7.30;5.33;;;;;;;;;;5053541;28;20232;-80
2022/11/04 01:18:49;;;;;;;6.57;5.87;;;;;;;;;;5054461;28;20232;-79
2022/11/04 01:21:17;;;;;;;7.87;5.67;;;;;;;;;;5054362;28;20206;-80
2022/11/04 01:23:44;;;;;;;6.93;6.23;;;;;;;;;;5054174;28;20210;-80
2022/11/04 01:26:13;;;;;;;8.93;6.23;;;;;;;;;;5053776;28;20213;-80
2022/11/04 01:28:40;;;;;;;8.63;5.67;;;;;;;;;;5053969;28;20213;-80
2022/11/04 01:31:07;;;;;;;12.70;6.47;;;;;;;;;;5053422;28;20259;-80
2022/11/04 01:33:36;;;;;;;7.87;6.30;;;;;;;;;;5054512;28;20620;-80
2022/11/04 01:36:03;;;;;;;9.67;6.30;;;;;;;;;;5053560;28;20202;-80
2022/11/04 01:38:30;;;;;;;9.40;5.83;;;;;;;;;;5054304;28;20225;-80
2022/11/04 01:40:57;;;;;;;7.37;6.40;;;;;;;;;;5054365;28;20209;-80
2022/11/04 01:43:43;;;;;;;9.47;6.30;;;;;;;;;;5053474;28;20591;-79
2022/11/04 01:46:12;;;;;;;12.03;6.33;;;;;;;;;;5053540;28;20255;-80
2022/11/04 01:48:41;;;;;;;8.23;6.30;;;;;;;;;;5053837;28;20194;-80
2022/11/04 01:51:07;;;;;;;9.07;6.50;;;;;;;;;;5053724;28;20228;-80
2022/11/04 01:53:37;;;;;;;9.17;7.40;;;;;;;;;;5053242;28;20206;-80
2022/11/04 01:56:10;;;;;;;8.13;6.50;;;;;;;;;;5053504;28;20202;-80
2022/11/04 01:58:39;;;;;;;8.80;6.43;;;;;;;;;;5053121;28;20222;-80
2022/11/04 02:01:05;;;;;;;7.70;6.37;;;;;;;;;;5053556;28;20600;-79
2022/11/04 02:03:35;;;;;;;8.80;6.57;;;;;;;;;;5053654;28;20230;-80
2022/11/04 02:06:03;;;;;;;9.43;6.23;;;;;;;;;;5053358;28;20193;-80
2022/11/04 02:08:30;;;;;;;8.70;6.87;;;;;;;;;;5053774;28;20202;-80
2022/11/04 02:11:00;;;;;;;8.67;6.60;;;;;;;;;;5052605;28;20742;-80
2022/11/04 02:13:26;;;;;;;7.53;6.73;;;;;;;;;;5053478;28;20205;-80
2022/11/04 02:15:57;;;;;;;8.33;6.33;;;;;;;;;;5052862;28;20229;-80
2022/11/04 02:18:34;;;;;;;7.13;6.20;;;;;;;;;;5052902;28;20220;-81
2022/11/04 02:21:33;;;;;;;9.23;5.77;;;;;;;;;;5052656;28;20198;-80
2022/11/04 02:24:32;;;;;;;10.30;6.77;;;;;;;;;;5053401;28;20205;-80
2022/11/04 02:27:23;;;;;;;9.67;6.67;;;;;;;;;;5043928;28;20202;-80
2022/11/04 02:30:09;;;;;;;7.53;6.63;;;;;;;;;;5052747;28;20208;-80
2022/11/04 02:32:47;;;;;;;6.60;5.43;;;;;;;;;;5052591;28;20678;-80
2022/11/04 02:35:20;;;;;;;7.40;6.57;;;;;;;;;;5052675;28;20256;-80
2022/11/04 02:37:53;;;;;;;9.90;6.43;;;;;;;;;;5052417;28;20202;-80
2022/11/04 02:40:27;;;;;;;8.57;6.47;;;;;;;;;;5052452;28;20230;-80
2022/11/04 02:42:58;;;;;;;9.70;6.20;;;;;;;;;;5052940;28;20208;-81
2022/11/04 02:45:31;;;;;;;7.03;6.33;;;;;;;;;;5052609;28;20252;-80
2022/11/04 02:48:02;;;;;;;12.23;7.77;;;;;;;;;;5052320;28;20201;-80
2022/11/04 02:50:33;;;;;;;10.03;7.33;;;;;;;;;;5052289;28;20255;-80
2022/11/04 02:53:02;;;;;;;12.47;7.83;;;;;;;;;;5052570;28;20213;-80
2022/11/04 02:55:32;;;;;;;10.30;7.37;;;;;;;;;;5052113;28;20201;-80
2022/11/04 02:58:00;;;;;;;9.50;6.40;;;;;;;;;;5052572;28;20275;-80
2022/11/04 03:00:28;;;;;;;9.67;6.80;;;;;;;;;;5052061;28;20226;-80
2022/11/04 03:02:57;;;;;;;9.97;7.90;;;;;;;;;;5052316;28;20210;-80
2022/11/04 03:05:27;;;;;;;9.83;7.60;;;;;;;;;;5052272;28;20289;-80
2022/11/04 03:07:57;;;;;;;11.60;6.93;;;;;;;;;;5052316;28;20738;-80
2022/11/04 03:10:29;;;;;;;10.27;5.93;;;;;;;;;;5051827;28;20213;-80
2022/11/04 03:12:59;;;;;;;7.97;5.83;;;;;;;;;;5052026;28;20209;-80
2022/11/04 03:15:31;;;;;;;9.33;6.13;;;;;;;;;;5051791;28;20205;-80
2022/11/04 03:18:03;;;;;;;8.00;6.20;;;;;;;;;;5038452;28;20201;-80
2022/11/04 03:20:30;;;;;;;7.80;6.43;;;;;;;;;;5051490;28;20287;-80
2022/11/04 03:22:59;;;;;;;7.93;6.67;;;;;;;;;;5051287;28;20583;-80
2022/11/04 03:25:28;;;;;;;11.07;6.40;;;;;;;;;;5051549;28;20213;-80
2022/11/04 03:28:02;;;;;;;10.23;5.70;;;;;;;;;;5051608;28;21065;-80
2022/11/04 03:30:36;;;;;;;8.87;6.47;;;;;;;;;;5051429;28;20244;-80
2022/11/04 03:33:06;;;;;;;9.80;7.17;;;;;;;;;;5051974;28;20285;-80
2022/11/04 03:35:33;;;;;;;7.93;6.23;;;;;;;;;;5052114;28;20206;-80
2022/11/04 03:38:00;;;;;;;9.27;6.87;;;;;;;;;;5051316;28;20302;-80
2022/11/04 03:40:27;;;;;;;6.77;6.07;;;;;;;;;;5051370;28;20271;-80
2022/11/04 03:42:57;;;;;;;7.17;6.17;;;;;;;;;;5051413;28;20205;-80
2022/11/04 03:45:24;;;;;;;9.53;6.67;;;;;;;;;;5051292;28;20209;-81
2022/11/04 03:47:52;;;;;;;7.47;5.73;;;;;;;;;;5051857;28;20198;-80
2022/11/04 03:50:25;;;;;;;8.77;6.47;;;;;;;;;;5051071;28;20209;-79
2022/11/04 03:52:52;;;;;;;9.83;6.40;;;;;;;;;;5051078;28;20205;-79
2022/11/04 03:55:19;;;;;;;9.20;5.93;;;;;;;;;;5051256;28;20201;-79
2022/11/04 03:57:49;;;;;;;8.37;6.80;;;;;;;;;;5051658;28;20209;-79
2022/11/04 04:00:17;;;;;;;9.20;6.67;;;;;;;;;;5051017;28;20233;-79
2022/11/04 04:03:00;;;;;;;7.30;6.30;;;;;;;;;;5049548;28;20217;-79
2022/11/04 04:05:29;;;;;;;9.90;7.20;;;;;;;;;;5042592;28;20289;-79
2022/11/04 04:08:01;;;;;;;8.80;5.87;;;;;;;;;;5046378;28;20205;-79
2022/11/04 04:10:39;;;;;;;7.93;6.17;;;;;;;;;;5050116;28;20209;-79
2022/11/04 04:13:13;;;;;;;9.63;7.13;;;;;;;;;;5050604;28;20680;-79
2022/11/04 04:15:44;;;;;;;7.40;6.17;;;;;;;;;;5050378;28;20254;-79
2022/11/04 04:18:13;;;;;;;12.43;6.60;;;;;;;;;;5050807;28;20209;-79
2022/11/04 04:20:41;;;;;;;12.23;7.37;;;;;;;;;;5050810;28;20221;-79
2022/11/04 04:28:37;;;;;;;9.87;7.97;;;;;;;;;;5048527;28;20217;-79
2022/11/04 04:31:04;;;;;;;17.70;8.80;;;;;;;;;;5030111;28;20195;-78
2022/11/04 04:33:32;;;;;;;10.13;7.07;;;;;;;;;;5030003;28;20203;-78
2022/11/04 04:35:59;;;;;;;10.37;8.03;;;;;;;;;;5029782;28;20624;-79
2022/11/04 04:47:18;;;;;;;7.63;6.60;;;;;;;;;;4976505;28;20629;-78
2022/11/04 04:49:53;;;;;;;11.70;7.50;;;;;;;;;;5025578;28;20201;-78
2022/11/04 04:52:20;;;;;;;16.20;7.10;;;;;;;;;;5039605;28;20233;-78
2022/11/04 04:54:48;;;;;;;13.17;6.27;;;;;;;;;;5029253;28;20201;-78
2022/11/04 04:57:15;;;;;;;7.20;6.23;;;;;;;;;;5028704;28;20203;-79
2022/11/04 04:59:41;;;;;;;10.27;8.17;;;;;;;;;;5028798;28;20265;-78
2022/11/04 05:02:08;;;;;;;86.43;16.70;;;;;;;;;;5035061;28;20202;-80
2022/11/04 05:04:35;;;;;;;31.53;9.77;;;;;;;;;;5047736;28;20234;-78
2022/11/04 05:07:03;;;;;;;13.13;9.90;;;;;;;;;;5050133;28;20204;-79
2022/11/04 05:09:30;;;;;;;9.20;6.83;;;;;;;;;;5050067;28;20206;-78
2022/11/04 05:11:57;;;;;;;10.67;6.97;;;;;;;;;;5048833;28;20228;-78
2022/11/04 05:14:23;;;;;;;10.83;7.00;;;;;;;;;;5049892;28;20214;-78
2022/11/04 05:16:50;;;;;;;7.43;5.80;;;;;;;;;;5050176;28;20591;-79
2022/11/04 05:19:18;;;;;;;10.93;6.10;;;;;;;;;;5049767;28;20222;-79
2022/11/04 05:21:45;;;;;;;6.60;5.90;;;;;;;;;;5050468;28;20210;-79
2022/11/04 05:24:13;;;;;;;6.70;5.87;;;;;;;;;;5049680;28;20703;-78
2022/11/04 05:26:40;;;;;;;9.83;6.53;;;;;;;;;;5049367;28;20210;-78
2022/11/04 05:29:06;;;;;;;18.17;13.20;;;;;;;;;;5048299;28;20712;-79
2022/11/04 05:31:33;;;;;;;17.37;12.13;;;;;;;;;;5046408;28;20256;-78
2022/11/04 05:34:00;;;;;;;10.63;8.70;;;;;;;;;;5048024;28;20206;-80
2022/11/04 05:36:27;;;;;;;13.50;10.03;;;;;;;;;;5048460;28;20205;-78
2022/11/04 05:38:55;;;;;;;12.17;10.13;;;;;;;;;;5048992;28;20695;-78
2022/11/04 05:41:25;;;;;;;15.00;10.13;;;;;;;;;;5048901;28;20293;-79
2022/11/04 05:43:52;;;;;;;12.37;9.17;;;;;;;;;;5049746;28;20194;-78
2022/11/04 05:46:19;;;;;;;30.27;20.77;;;;;;;;;;5053300;28;20293;-79
2022/11/04 05:48:46;;;;;;;21.80;15.33;;;;;;;;;;5053354;28;20202;-79
2022/11/04 05:51:13;;;;;;;15.73;10.43;;;;;;;;;;5053110;28;20209;-79
2022/11/04 05:53:40;;;;;;;17.70;12.43;;;;;;;;;;5052882;28;20280;-78
2022/11/04 05:56:07;;;;;;;19.63;12.20;;;;;;;;;;5053274;28;20213;-79
2022/11/04 05:58:35;;;;;;;18.53;12.23;;;;;;;;;;5053181;28;20202;-79
2022/11/04 06:01:13;;;;;;;14.57;10.67;;;;;;;;;;5053048;28;20228;-79
2022/11/04 06:03:40;;;;;;;24.47;10.90;;;;;;;;;;5053027;28;20230;-79
2022/11/04 06:06:07;;;;;;;11.87;9.57;;;;;;;;;;5052499;28;20205;-79
2022/11/04 06:08:33;;;;;;;12.80;8.97;;;;;;;;;;5053418;28;20201;-78
2022/11/04 06:11:04;;;;;;;10.97;8.53;;;;;;;;;;5052730;28;20204;-79
2022/11/04 06:13:31;;;;;;;12.37;8.50;;;;;;;;;;5052551;28;20699;-79
2022/11/04 06:15:59;;;;;;;13.37;8.20;;;;;;;;;;5053099;28;20320;-79
2022/11/04 06:18:26;;;;;;;11.23;8.20;;;;;;;;;;5052853;28;20206;-79
2022/11/04 06:21:07;;;;;;;16.50;12.73;;;;;;;;;;5052198;28;20283;-79
2022/11/04 06:23:33;;;;;;;29.53;24.00;;;;;;;;;;5053178;28;20213;-79
2022/11/04 06:26:00;;;;;;;27.47;19.83;;;;;;;;;;5052414;28;20206;-79
2022/11/04 06:28:27;;;;;;;17.67;13.07;;;;;;;;;;5052674;28;20205;-79
2022/11/04 06:30:57;;;;;;;18.07;14.53;;;;;;;;;;5052362;28;20705;-79
2022/11/04 06:33:25;;;;;;;18.03;13.17;;;;;;;;;;5051957;28;20213;-79
2022/11/04 06:35:52;;;;;;;14.47;12.37;;;;;;;;;;5052710;28;20589;-79
2022/11/04 06:38:19;;;;;;;10.33;7.43;;;;;;;;;;5052066;28;20670;-79
2022/11/04 06:40:46;;;;;;;12.10;7.40;;;;;;;;;;5050361;28;20229;-79
2022/11/04 06:43:12;;;;;;;9.90;6.47;;;;;;;;;;5052087;28;20202;-80
2022/11/04 06:45:39;;;;;;;7.73;6.50;;;;;;;;;;5050483;28;20198;-79
2022/11/04 06:48:06;;;;;;;7.87;6.73;;;;;;;;;;5045266;28;21100;-79
2022/11/04 06:50:34;;;;;;;14.47;7.10;;;;;;;;;;5051529;28;20205;-80
2022/11/04 06:53:01;;;;;;;18.43;8.03;;;;;;;;;;5051781;28;20205;-79
2022/11/04 06:55:28;;;;;;;11.30;6.97;;;;;;;;;;5051088;28;21384;-79
2022/11/04 06:57:55;;;;;;;18.47;7.43;;;;;;;;;;5051636;28;20205;-79
2022/11/04 07:00:21;;;;;;;25.73;9.67;;;;;;;;;;5051043;28;20226;-80
2022/11/04 07:02:49;;;;;;;21.10;9.37;;;;;;;;;;5051349;28;20217;-79
2022/11/04 07:05:16;;;;;;;18.30;9.63;;;;;;;;;;5051356;28;20225;-79
2022/11/04 07:07:44;;;;;;;15.57;8.13;;;;;;;;;;5051082;28;20209;-79
2022/11/04 07:10:11;;;;;;;12.77;7.43;;;;;;;;;;5051122;28;20210;-79
2022/11/04 07:12:37;;;;;;;11.33;7.97;;;;;;;;;;5050978;28;20657;-79
2022/11/04 07:15:05;;;;;;;14.30;7.97;;;;;;;;;;5050883;28;20209;-79
2022/11/04 07:17:32;;;;;;;15.03;7.60;;;;;;;;;;5051474;28;20202;-79
2022/11/04 07:19:59;;;;;;;10.20;6.93;;;;;;;;;;5051646;28;20225;-79
2022/11/04 07:22:26;;;;;;;12.43;8.53;;;;;;;;;;5051913;28;20264;-79
2022/11/04 07:24:54;;;;;;;16.27;8.13;;;;;;;;;;5051200;28;20692;-79
2022/11/04 07:27:21;;;;;;;10.40;7.13;;;;;;;;;;5051594;28;20213;-79
2022/11/04 07:29:47;;;;;;;7.90;7.00;;;;;;;;;;5051545;28;20206;-79
2022/11/04 07:32:14;;;;;;;13.60;6.90;;;;;;;;;;5051715;28;20681;-79
2022/11/04 07:34:41;;;;;;;8.37;7.00;;;;;;;;;;5051192;28;20201;-79
2022/11/04 07:37:08;;;;;;;8.17;6.37;;;;;;;;;;5051356;28;20202;-80
2022/11/04 07:39:34;;;;;;;8.83;5.97;;;;;;;;;;5050875;28;20210;-79
2022/11/04 07:42:03;;;;;;;11.87;6.70;;;;;;;;;;5051059;28;20201;-80
2022/11/04 07:44:29;;;;;;;8.17;6.47;;;;;;;;;;5050864;28;20206;-79
2022/11/04 07:46:57;;;;;;;6.73;5.97;;;;;;;;;;5051339;28;20676;-79
2022/11/04 07:49:24;;;;;;;12.03;6.87;;;;;;;;;;5051089;28;20635;-79
2022/11/04 07:51:50;;;;;;;10.10;6.60;;;;;;;;;;5051275;28;20764;-80
2022/11/04 07:54:17;;;;;;;9.80;6.40;;;;;;;;;;5050858;28;20210;-81
2022/11/04 07:56:44;;;;;;;8.43;6.60;;;;;;;;;;5050887;28;20205;-79
2022/11/04 07:59:12;;;;;;;6.87;6.17;;;;;;;;;;5051047;28;20202;-79
2022/11/04 08:01:39;;;;;;;8.27;7.37;;;;;;;;;;5050997;28;20229;-80
2022/11/04 08:04:06;;;;;;;8.07;6.37;;;;;;;;;;5050743;28;20252;-80
2022/11/04 08:06:33;;;;;;;7.90;6.67;;;;;;;;;;5050512;28;20233;-80
2022/11/04 08:09:00;;;;;;;8.30;6.93;;;;;;;;;;5050242;28;20281;-79
2022/11/04 08:11:28;;;;;;;7.73;6.93;;;;;;;;;;5050709;28;20239;-79
2022/11/04 08:13:55;;;;;;;8.77;7.50;;;;;;;;;;5050515;28;20300;-80
2022/11/04 08:16:24;;;;;;;11.40;7.70;;;;;;;;;;5050539;28;20210;-80
2022/11/04 08:18:52;;;;;;;8.33;7.17;;;;;;;;;;5050254;28;20209;-80
2022/11/04 08:21:19;;;;;;;10.90;7.20;;;;;;;;;;5050639;28;20244;-79
2022/11/04 08:23:47;;;;;;;10.53;7.73;;;;;;;;;;5050698;28;20198;-80
2022/11/04 08:26:16;;;;;;;8.43;7.53;;;;;;;;;;5050223;28;20194;-79
2022/11/04 08:28:43;;;;;;;11.37;6.60;;;;;;;;;;5050419;28;20210;-79
2022/11/04 08:31:12;;;;;;;7.37;6.33;;;;;;;;;;5050038;28;20201;-79
2022/11/04 08:33:40;;;;;;;9.43;7.20;;;;;;;;;;5050415;28;20211;-79
2022/11/04 08:36:09;;;;;;;13.87;7.40;;;;;;;;;;5049804;28;20257;-78
2022/11/04 08:38:36;;;;;;;8.77;7.60;;;;;;;;;;5050129;28;20707;-79
2022/11/04 08:41:05;;;;;;;8.00;6.77;;;;;;;;;;5050331;28;20595;-79
2022/11/04 08:43:33;;;;;;;14.20;7.83;;;;;;;;;;5050263;28;20207;-79
2022/11/04 08:46:00;;;;;;;10.87;7.83;;;;;;;;;;5050196;28;20232;-79
2022/11/04 08:48:28;;;;;;;10.17;6.77;;;;;;;;;;5050139;28;20244;-78
2022/11/04 08:50:58;;;;;;;11.77;8.07;;;;;;;;;;5049723;28;20669;-79
2022/11/04 08:53:25;;;;;;;9.37;7.87;;;;;;;;;;5050569;28;20198;-79
2022/11/04 08:55:52;;;;;;;11.90;8.40;;;;;;;;;;5050178;28;20201;-79
2022/11/04 08:58:19;;;;;;;11.00;8.13;;;;;;;;;;5050229;28;20194;-80
2022/11/04 09:00:46;;;;;;;12.17;8.80;;;;;;;;;;5049843;28;20225;-79
2022/11/04 09:03:13;;;;;;;10.37;8.60;;;;;;;;;;5049667;28;20691;-80
2022/11/04 09:05:43;;;;;;;18.00;10.00;;;;;;;;;;5049919;28;20227;-80
2022/11/04 09:08:12;;;;;;;10.90;9.00;;;;;;;;;;5050215;28;20207;-79
2022/11/04 09:10:41;;;;;;;10.03;7.87;;;;;;;;;;5049556;28;20718;-80
2022/11/04 09:13:09;;;;;;;16.33;8.87;;;;;;;;;;5050407;28;20233;-80
2022/11/04 09:15:36;;;;;;;15.93;8.47;;;;;;;;;;5049574;28;20339;-79
2022/11/04 09:18:02;;;;;;;12.13;8.90;;;;;;;;;;5050048;28;20198;-79
2022/11/04 09:20:30;;;;;;;13.93;9.83;;;;;;;;;;5053257;28;20221;-79
2022/11/04 09:22:57;;;;;;;14.13;9.53;;;;;;;;;;5054114;28;20217;-80
2022/11/04 09:25:25;;;;;;;12.93;9.40;;;;;;;;;;5053940;28;20225;-80
2022/11/04 09:27:52;;;;;;;17.30;10.63;;;;;;;;;;5052420;28;20254;-80
2022/11/04 09:30:19;;;;;;;12.33;9.33;;;;;;;;;;5047616;28;20233;-80
2022/11/04 09:32:46;;;;;;;12.53;10.10;;;;;;;;;;5053717;28;20705;-79
2022/11/04 09:35:15;;;;;;;17.97;10.80;;;;;;;;;;5053781;28;20615;-80
2022/11/04 09:37:42;;;;;;;15.30;10.83;;;;;;;;;;5053373;28;20207;-79
2022/11/04 09:40:11;;;;;;;14.20;10.33;;;;;;;;;;5053351;28;20672;-80
2022/11/04 09:42:47;;;;;;;14.47;11.67;;;;;;;;;;5053303;28;20222;-81
2022/11/04 09:45:17;;;;;;;19.00;11.37;;;;;;;;;;5050012;28;20288;-80
2022/11/04 09:47:46;;;;;;;14.80;9.87;;;;;;;;;;5053260;28;20210;-79
2022/11/04 09:50:18;;;;;;;16.97;10.87;;;;;;;;;;5053548;28;20202;-80
2022/11/04 09:52:49;;;;;;;15.27;11.00;;;;;;;;;;5053278;28;20205;-80
2022/11/04 09:55:21;;;;;;;14.47;11.57;;;;;;;;;;5053203;28;20638;-79
2022/11/04 09:57:53;;;;;;;16.83;10.77;;;;;;;;;;5053316;28;20211;-79
2022/11/04 10:00:20;;;;;;;15.97;11.83;;;;;;;;;;5053455;28;20260;-80
2022/11/04 10:02:54;;;;;;;18.73;10.93;;;;;;;;;;5053774;28;20202;-79
2022/11/04 10:05:36;;;;;;;15.77;10.63;;;;;;;;;;5053115;28;20696;-80
2022/11/04 10:08:17;;;;;;;15.97;10.60;;;;;;;;;;5052741;28;20201;-79
2022/11/04 10:10:52;;;;;;;17.70;12.17;;;;;;;;;;5052795;28;20209;-79
2022/11/04 10:13:26;;;;;;;14.87;12.40;;;;;;;;;;5053162;28;20201;-79
2022/11/04 10:16:04;;;;;;;22.20;12.40;;;;;;;;;;5052857;28;20204;-79
2022/11/04 10:18:46;;;;;;;16.93;11.77;;;;;;;;;;5052446;28;20626;-79
2022/11/04 10:21:19;;;;;;;17.73;12.27;;;;;;;;;;5052754;28;20670;-79
2022/11/04 10:24:01;;;;;;;17.53;12.50;;;;;;;;;;5052700;28;20205;-79
2022/11/04 10:26:36;;;;;;;19.97;12.00;;;;;;;;;;5052377;28;20637;-79
2022/11/04 10:29:05;;;;;;;19.20;11.80;;;;;;;;;;5052809;28;20209;-79
2022/11/04 10:31:34;;;;;;;15.70;11.47;;;;;;;;;;5038617;28;20205;-79
2022/11/04 10:34:06;;;;;;;14.27;10.93;;;;;;;;;;5052307;28;20205;-79
2022/11/04 10:36:33;;;;;;;15.67;12.43;;;;;;;;;;5052388;28;20202;-79
2022/11/04 10:39:03;;;;;;;18.17;12.07;;;;;;;;;;5052931;28;20642;-79
2022/11/04 10:41:33;;;;;;;19.87;11.50;;;;;;;;;;5052068;28;20647;-79
2022/11/04 10:44:05;;;;;;;17.60;11.07;;;;;;;;;;5052005;28;20659;-79
2022/11/04 10:46:49;;;;;;;18.03;12.00;;;;;;;;;;5052357;28;20636;-79
2022/11/04 10:49:38;;;;;;;19.00;12.47;;;;;;;;;;5052329;28;20286;-79
2022/11/04 10:52:07;;;;;;;16.53;12.60;;;;;;;;;;5052653;28;20591;-79
2022/11/04 10:54:39;;;;;;;14.07;11.90;;;;;;;;;;5052277;28;20201;-79
2022/11/04 10:57:06;;;;;;;14.90;11.67;;;;;;;;;;5051973;28;20304;-79
2022/11/04 10:59:45;;;;;;;14.37;11.07;;;;;;;;;;5052054;28;20592;-79
2022/11/04 11:02:12;;;;;;;14.40;11.30;;;;;;;;;;5051657;28;20222;-79
2022/11/04 11:04:40;;;;;;;16.70;12.47;;;;;;;;;;5051387;28;20241;-79
2022/11/04 11:07:09;;;;;;;17.60;11.43;;;;;;;;;;5051659;28;20718;-79
2022/11/04 11:09:37;;;;;;;18.53;11.93;;;;;;;;;;5051865;28;20209;-79
2022/11/04 11:12:07;;;;;;;21.50;12.07;;;;;;;;;;5052375;28;20210;-79
2022/11/04 11:14:37;;;;;;;14.47;11.50;;;;;;;;;;5037716;28;20208;-79
2022/11/04 11:17:20;;;;;;;16.20;11.33;;;;;;;;;;5052002;28;20586;-79
2022/11/04 11:19:50;;;;;;;21.27;12.37;;;;;;;;;;5037896;28;20218;-79
2022/11/04 11:22:31;;;;;;;15.37;10.63;;;;;;;;;;5051854;28;20234;-80
2022/11/04 11:25:13;;;;;;;18.43;12.17;;;;;;;;;;5039446;28;20663;-80
2022/11/04 11:27:41;;;;;;;19.77;10.67;;;;;;;;;;5051450;28;20201;-80
2022/11/04 11:30:20;;;;;;;13.73;11.10;;;;;;;;;;5051620;28;20206;-80
2022/11/04 11:32:52;;;;;;;16.33;11.23;;;;;;;;;;5051238;28;20239;-79
2022/11/04 11:35:19;;;;;;;18.73;12.17;;;;;;;;;;5050951;28;20698;-81
2022/11/04 11:37:47;;;;;;;14.17;10.67;;;;;;;;;;5051197;28;20209;-80
2022/11/04 11:40:33;;;;;;;19.87;11.30;;;;;;;;;;5051000;28;20650;-80
2022/11/04 11:43:04;;;;;;;15.87;11.40;;;;;;;;;;5051106;28;20208;-80
2022/11/04 11:45:33;;;;;;;17.37;11.13;;;;;;;;;;5050693;28;20199;-80
2022/11/04 11:47:59;;;;;;;13.50;9.83;;;;;;;;;;5050991;28;20209;-80
2022/11/04 11:50:33;;;;;;;18.00;11.20;;;;;;;;;;5051243;28;20231;-80
2022/11/04 11:53:15;;;;;;;13.10;10.07;;;;;;;;;;5051114;28;20207;-80
2022/11/04 11:55:48;;;;;;;11.70;10.50;;;;;;;;;;5049331;28;20214;-80
2022/11/04 11:58:27;;;;;;;18.50;10.40;;;;;;;;;;5051036;28;20232;-80
2022/11/04 12:00:59;;;;;;;15.20;10.63;;;;;;;;;;5050669;28;20200;-80
2022/11/04 12:03:32;;;;;;;13.67;10.57;;;;;;;;;;5050950;28;20232;-77
2022/11/04 12:06:16;;;;;;;11.53;9.83;;;;;;;;;;5050621;28;20213;-78
2022/11/04 12:09:03;;;;;;;13.27;10.23;;;;;;;;;;5050799;28;20201;-78
2022/11/04 12:11:36;;;;;;;16.53;11.87;;;;;;;;;;5051188;28;20213;-78
2022/11/04 12:14:06;;;;;;;10.90;9.17;;;;;;;;;;5051164;28;20213;-78
2022/11/04 12:16:41;;;;;;;14.03;10.30;;;;;;;;;;5051194;28;20202;-78
2022/11/04 12:19:16;;;;;;;16.57;10.80;;;;;;;;;;5050447;28;20205;-78
2022/11/04 12:21:48;;;;;;;13.80;10.67;;;;;;;;;;5050791;28;20228;-78
2022/11/04 12:24:26;;;;;;;16.50;11.30;;;;;;;;;;5050366;28;20255;-78
2022/11/04 12:26:57;;;;;;;13.03;10.33;;;;;;;;;;5050887;28;20213;-78
2022/11/04 12:29:38;;;;;;;17.67;11.07;;;;;;;;;;5050583;28;20211;-78
2022/11/04 12:32:14;;;;;;;13.53;11.37;;;;;;;;;;5050670;28;20682;-79
2022/11/04 12:34:54;;;;;;;18.77;12.00;;;;;;;;;;5050719;28;20283;-78
2022/11/04 12:37:27;;;;;;;14.40;10.03;;;;;;;;;;5050670;28;20235;-79
2022/11/04 12:40:07;;;;;;;14.70;10.37;;;;;;;;;;5050263;28;20726;-79
2022/11/04 12:42:42;;;;;;;15.63;11.00;;;;;;;;;;5050752;28;20225;-79
2022/11/04 12:45:22;;;;;;;14.03;9.90;;;;;;;;;;5049922;28;20631;-80
2022/11/04 12:47:50;;;;;;;21.97;11.27;;;;;;;;;;5050396;28;20208;-80
2022/11/04 12:50:44;;;;;;;12.33;10.90;;;;;;;;;;5049863;28;20201;-80
2022/11/04 12:53:29;;;;;;;15.37;10.77;;;;;;;;;;5050686;28;20278;-79
2022/11/04 12:56:01;;;;;;;15.07;10.87;;;;;;;;;;5040983;28;20197;-79
2022/11/04 12:58:37;;;;;;;23.57;11.00;;;;;;;;;;5054348;28;20279;-79
2022/11/04 13:01:06;;;;;;;14.63;10.43;;;;;;;;;;5053976;28;20212;-78
2022/11/04 13:03:50;;;;;;;11.37;9.60;;;;;;;;;;5054654;28;20235;-79
2022/11/04 13:06:18;;;;;;;22.73;9.90;;;;;;;;;;5054216;28;20258;-80
2022/11/04 13:08:50;;;;;;;14.30;11.03;;;;;;;;;;5054278;28;20205;-79
2022/11/04 13:11:23;;;;;;;12.77;9.80;;;;;;;;;;5053918;28;20262;-80
2022/11/04 13:13:57;;;;;;;14.37;11.30;;;;;;;;;;5054597;28;20208;-79
2022/11/04 13:16:24;;;;;;;15.63;11.40;;;;;;;;;;5053874;28;20205;-80
2022/11/04 13:18:53;;;;;;;12.70;10.23;;;;;;;;;;5054294;28;20683;-80
2022/11/04 13:21:24;;;;;;;12.73;10.87;;;;;;;;;;5053512;28;20225;-80
2022/11/04 13:23:54;;;;;;;14.03;11.30;;;;;;;;;;5053424;28;20700;-80
2022/11/04 13:26:21;;;;;;;17.23;11.87;;;;;;;;;;5054031;28;20206;-80
2022/11/04 13:28:58;;;;;;;17.47;10.97;;;;;;;;;;5054067;28;20201;-80
2022/11/04 13:31:32;;;;;;;17.23;12.43;;;;;;;;;;5053868;28;20204;-78
2022/11/04 13:34:05;;;;;;;19.17;14.20;;;;;;;;;;5053887;28;20216;-78
2022/11/04 13:36:37;;;;;;;15.93;11.63;;;;;;;;;;5053325;28;20240;-78
2022/11/04 13:39:08;;;;;;;15.87;12.10;;;;;;;;;;5053784;28;20209;-78
2022/11/04 13:41:55;;;;;;;16.63;12.07;;;;;;;;;;5053446;28;20731;-79
2022/11/04 13:44:25;;;;;;;16.60;12.20;;;;;;;;;;5053240;28;20675;-78
2022/11/04 13:46:54;;;;;;;15.93;12.57;;;;;;;;;;5053435;28;20236;-79
2022/11/04 13:49:29;;;;;;;17.93;10.97;;;;;;;;;;5053080;28;20212;-78
2022/11/04 13:52:06;;;;;;;15.93;12.00;;;;;;;;;;5052981;28;20292;-78
2022/11/04 13:54:36;;;;;;;16.10;12.00;;;;;;;;;;5053229;28;20243;-78
2022/11/04 13:57:06;;;;;;;18.50;11.87;;;;;;;;;;5053366;28;20288;-78
2022/11/04 13:59:33;;;;;;;15.10;11.67;;;;;;;;;;5053522;28;20216;-79
2022/11/04 14:02:39;;;;;;;20.60;11.40;;;;;;;;;;5052896;28;20261;-79
2022/11/04 14:05:54;;;;;;;16.60;11.93;;;;;;;;;;5049426;28;20286;-79
2022/11/04 14:08:22;;;;;;;16.50;13.70;;;;;;;;;;5044207;28;20209;-78
2022/11/04 14:11:13;;;;;;;17.80;12.43;;;;;;;;;;5053116;28;20196;-78
2022/11/04 14:13:47;;;;;;;17.73;12.03;;;;;;;;;;5052934;28;20207;-78
2022/11/04 14:16:41;;;;;;;14.57;11.63;;;;;;;;;;5038837;28;20631;-78
2022/11/04 14:19:56;;;;;;;19.63;12.30;;;;;;;;;;5052859;28;20261;-78
2022/11/04 14:22:48;;;;;;;19.00;12.93;;;;;;;;;;5052550;28;20231;-78
2022/11/04 14:25:27;;;;;;;20.73;12.80;;;;;;;;;;5052555;28;20206;-79
2022/11/04 14:27:56;;;;;;;18.67;13.00;;;;;;;;;;5052593;28;20202;-79
2022/11/04 14:30:50;;;;;;;19.27;15.70;;;;;;;;;;5052447;28;20199;-79
2022/11/04 14:33:31;;;;;;;25.60;17.90;;;;;;;;;;5015070;28;20645;-79
2022/11/04 14:36:14;;;;;;;21.10;12.87;;;;;;;;;;5052495;28;20208;-79
2022/11/04 14:38:41;;;;;;;19.87;12.30;;;;;;;;;;5052841;28;20215;-79
2022/11/04 14:41:17;;;;;;;14.47;11.67;;;;;;;;;;5052005;28;20210;-79
2022/11/04 14:43:45;;;;;;;16.97;12.33;;;;;;;;;;5052363;28;20224;-79
2022/11/04 14:46:17;;;;;;;16.83;13.27;;;;;;;;;;5052406;28;20206;-79
2022/11/04 14:48:50;;;;;;;15.43;12.00;;;;;;;;;;5052272;28;20199;-79
2022/11/04 14:51:24;;;;;;;20.77;13.17;;;;;;;;;;5052025;28;20296;-79
2022/11/04 14:53:52;;;;;;;18.30;14.17;;;;;;;;;;5052467;28;20209;-79
2022/11/04 14:56:23;;;;;;;24.47;14.40;;;;;;;;;;5052158;28;20208;-79
2022/11/04 14:58:59;;;;;;;15.70;12.33;;;;;;;;;;5052215;28;20230;-78
2022/11/04 15:01:28;;;;;;;17.80;14.90;;;;;;;;;;5052007;28;20205;-79
2022/11/04 15:03:56;;;;;;;17.10;12.07;;;;;;;;;;5051555;28;20240;-79
2022/11/04 15:06:28;;;;;;;19.37;11.40;;;;;;;;;;5050568;28;20516;-78
2022/11/04 15:08:55;;;;;;;31.07;15.87;;;;;;;;;;5050603;28;20225;-79
2022/11/04 15:14:14;;;;;;;23.80;12.10;;;;;;;;;;5051592;28;20276;-79
2022/11/04 15:16:42;;;;;;;28.67;13.07;;;;;;;;;;5050804;28;20204;-78
2022/11/04 15:19:09;;;;;;;17.43;12.40;;;;;;;;;;5051166;28;20596;-79
2022/11/04 15:21:39;;;;;;;20.40;15.60;;;;;;;;;;5046090;28;20201;-78
2022/11/04 15:24:06;;;;;;;17.93;16.03;;;;;;;;;;5050071;28;20283;-79
2022/11/04 15:26:35;;;;;;;26.63;13.13;;;;;;;;;;5050933;28;20198;-78